Terminal Aerodrome Forecast
Issued by NWS

Home | Current Version | Previous Version | Text Only | Print | Product List | Glossary On
Versions: 1 2 3 4 5 6 7 8 9 10 11 12 13 14
000
FTUS45 KRIW 160500
TAFBPI
TAF
KBPI 160531Z 1606/1706 32007KT P6SM OVC035
     FM161600 02008KT P6SM SCT050 BKN080
     FM162300 03008KT P6SM VCSH BKN040=

USA.gov is the U.S. government's official web portal to all federal, state and local government web resources and services.